sensor_id;sensor_type;location;lat;lon;timestamp;P1;durP1;ratioP1;P2;durP2;ratioP2
40611;SDS011;26317;44.894;20.286;2024-01-30T00:02:19;119.97;;;88.75;;
40611;SDS011;26317;44.894;20.286;2024-01-30T00:05:02;121.93;;;88.20;;
40611;SDS011;26317;44.894;20.286;2024-01-30T00:07:46;119.07;;;86.47;;
40611;SDS011;26317;44.894;20.286;2024-01-30T00:10:22;119.38;;;86.78;;
40611;SDS011;26317;44.894;20.286;2024-01-30T00:13:10;117.40;;;86.95;;
40611;SDS011;26317;44.894;20.286;2024-01-30T00:15:52;117.85;;;84.95;;
40611;SDS011;26317;44.894;20.286;2024-01-30T00:18:31;121.85;;;87.80;;
40611;SDS011;26317;44.894;20.286;2024-01-30T00:21:15;120.13;;;86.40;;
40611;SDS011;26317;44.894;20.286;2024-01-30T00:23:56;113.90;;;85.82;;
40611;SDS011;26317;44.894;20.286;2024-01-30T00:26:33;116.60;;;85.43;;
40611;SDS011;26317;44.894;20.286;2024-01-30T00:29:10;118.03;;;84.93;;
40611;SDS011;26317;44.894;20.286;2024-01-30T00:31:55;124.18;;;88.78;;
40611;SDS011;26317;44.894;20.286;2024-01-30T00:34:33;126.88;;;91.20;;
40611;SDS011;26317;44.894;20.286;2024-01-30T00:37:14;121.40;;;89.60;;
40611;SDS011;26317;44.894;20.286;2024-01-30T00:39:49;129.75;;;94.57;;
40611;SDS011;26317;44.894;20.286;2024-01-30T00:42:26;114.25;;;86.45;;
40611;SDS011;26317;44.894;20.286;2024-01-30T00:45:01;126.47;;;88.50;;
40611;SDS011;26317;44.894;20.286;2024-01-30T00:47:40;118.28;;;88.47;;
40611;SDS011;26317;44.894;20.286;2024-01-30T00:50:16;118.93;;;89.53;;
40611;SDS011;26317;44.894;20.286;2024-01-30T00:52:56;119.93;;;88.25;;
40611;SDS011;26317;44.894;20.286;2024-01-30T00:55:40;123.40;;;89.90;;
40611;SDS011;26317;44.894;20.286;2024-01-30T00:58:18;121.25;;;87.65;;
40611;SDS011;26317;44.894;20.286;2024-01-30T01:00:55;122.65;;;88.90;;
40611;SDS011;26317;44.894;20.286;2024-01-30T01:03:36;111.35;;;83.18;;
40611;SDS011;26317;44.894;20.286;2024-01-30T01:06:13;116.80;;;83.15;;
40611;SDS011;26317;44.894;20.286;2024-01-30T01:08:59;115.70;;;83.68;;
40611;SDS011;26317;44.894;20.286;2024-01-30T01:11:32;109.68;;;81.68;;
40611;SDS011;26317;44.894;20.286;2024-01-30T01:14:05;108.00;;;80.95;;
40611;SDS011;26317;44.894;20.286;2024-01-30T01:16:45;106.85;;;78.28;;
40611;SDS011;26317;44.894;20.286;2024-01-30T01:19:23;103.30;;;78.53;;
40611;SDS011;26317;44.894;20.286;2024-01-30T01:21:56;106.65;;;79.68;;
40611;SDS011;26317;44.894;20.286;2024-01-30T01:24:39;113.40;;;83.82;;
40611;SDS011;26317;44.894;20.286;2024-01-30T01:27:19;121.47;;;90.15;;
40611;SDS011;26317;44.894;20.286;2024-01-30T01:30:00;118.45;;;88.50;;
40611;SDS011;26317;44.894;20.286;2024-01-30T01:32:37;120.07;;;88.50;;
40611;SDS011;26317;44.894;20.286;2024-01-30T01:35:23;113.75;;;82.80;;
40611;SDS011;26317;44.894;20.286;2024-01-30T01:37:59;120.35;;;86.70;;
40611;SDS011;26317;44.894;20.286;2024-01-30T01:40:38;110.15;;;80.32;;
40611;SDS011;26317;44.894;20.286;2024-01-30T01:43:21;100.70;;;74.22;;
40611;SDS011;26317;44.894;20.286;2024-01-30T01:45:55;96.57;;;69.50;;
40611;SDS011;26317;44.894;20.286;2024-01-30T01:48:34;98.68;;;68.82;;
40611;SDS011;26317;44.894;20.286;2024-01-30T01:51:14;96.78;;;71.93;;
40611;SDS011;26317;44.894;20.286;2024-01-30T01:53:51;87.55;;;63.80;;
40611;SDS011;26317;44.894;20.286;2024-01-30T01:56:41;85.47;;;62.22;;
40611;SDS011;26317;44.894;20.286;2024-01-30T01:59:28;81.25;;;61.13;;
40611;SDS011;26317;44.894;20.286;2024-01-30T02:02:07;71.30;;;55.55;;
40611;SDS011;26317;44.894;20.286;2024-01-30T02:04:50;73.72;;;54.88;;
40611;SDS011;26317;44.894;20.286;2024-01-30T02:07:32;69.28;;;52.72;;
40611;SDS011;26317;44.894;20.286;2024-01-30T02:10:16;69.68;;;51.90;;
40611;SDS011;26317;44.894;20.286;2024-01-30T02:12:56;70.57;;;52.60;;
40611;SDS011;26317;44.894;20.286;2024-01-30T02:15:29;63.63;;;51.22;;
40611;SDS011;26317;44.894;20.286;2024-01-30T02:18:07;65.07;;;51.30;;
40611;SDS011;26317;44.894;20.286;2024-01-30T02:20:45;64.82;;;49.80;;
40611;SDS011;26317;44.894;20.286;2024-01-30T02:23:22;67.53;;;49.75;;
40611;SDS011;26317;44.894;20.286;2024-01-30T02:26:23;61.08;;;49.08;;
40611;SDS011;26317;44.894;20.286;2024-01-30T02:28:58;66.43;;;51.55;;
40611;SDS011;26317;44.894;20.286;2024-01-30T02:31:38;60.97;;;49.00;;
40611;SDS011;26317;44.894;20.286;2024-01-30T02:34:19;62.70;;;49.85;;
40611;SDS011;26317;44.894;20.286;2024-01-30T02:36:56;61.63;;;48.65;;
40611;SDS011;26317;44.894;20.286;2024-01-30T02:39:46;61.47;;;48.80;;
40611;SDS011;26317;44.894;20.286;2024-01-30T02:42:23;63.00;;;49.28;;
40611;SDS011;26317;44.894;20.286;2024-01-30T02:45:14;65.38;;;50.85;;
40611;SDS011;26317;44.894;20.286;2024-01-30T02:47:51;60.95;;;49.95;;
40611;SDS011;26317;44.894;20.286;2024-01-30T02:50:31;61.85;;;48.88;;
40611;SDS011;26317;44.894;20.286;2024-01-30T02:53:10;64.97;;;49.03;;
40611;SDS011;26317;44.894;20.286;2024-01-30T02:55:59;63.95;;;50.33;;
40611;SDS011;26317;44.894;20.286;2024-01-30T02:58:40;66.75;;;51.60;;
40611;SDS011;26317;44.894;20.286;2024-01-30T03:01:28;69.90;;;52.75;;
40611;SDS011;26317;44.894;20.286;2024-01-30T03:04:04;66.53;;;51.50;;
40611;SDS011;26317;44.894;20.286;2024-01-30T03:06:51;65.53;;;50.95;;
40611;SDS011;26317;44.894;20.286;2024-01-30T03:09:26;63.38;;;50.25;;
40611;SDS011;26317;44.894;20.286;2024-01-30T03:12:03;63.58;;;49.42;;
40611;SDS011;26317;44.894;20.286;2024-01-30T03:14:43;65.00;;;49.22;;
40611;SDS011;26317;44.894;20.286;2024-01-30T03:17:24;64.40;;;50.65;;
40611;SDS011;26317;44.894;20.286;2024-01-30T03:20:12;70.90;;;52.20;;
40611;SDS011;26317;44.894;20.286;2024-01-30T03:22:48;73.63;;;55.95;;
40611;SDS011;26317;44.894;20.286;2024-01-30T03:25:21;102.85;;;70.32;;
40611;SDS011;26317;44.894;20.286;2024-01-30T03:27:56;106.43;;;77.20;;
40611;SDS011;26317;44.894;20.286;2024-01-30T03:30:30;113.38;;;81.03;;
40611;SDS011;26317;44.894;20.286;2024-01-30T03:33:10;118.25;;;84.03;;
40611;SDS011;26317;44.894;20.286;2024-01-30T03:35:46;124.88;;;87.40;;
40611;SDS011;26317;44.894;20.286;2024-01-30T03:38:22;114.97;;;87.35;;
40611;SDS011;26317;44.894;20.286;2024-01-30T03:41:00;115.75;;;85.80;;
40611;SDS011;26317;44.894;20.286;2024-01-30T03:43:37;122.35;;;85.50;;
40611;SDS011;26317;44.894;20.286;2024-01-30T03:46:15;113.47;;;80.95;;
40611;SDS011;26317;44.894;20.286;2024-01-30T03:48:54;114.57;;;79.35;;
40611;SDS011;26317;44.894;20.286;2024-01-30T03:51:31;108.22;;;76.50;;
40611;SDS011;26317;44.894;20.286;2024-01-30T03:54:24;96.97;;;73.03;;
40611;SDS011;26317;44.894;20.286;2024-01-30T03:57:10;92.32;;;70.53;;
40611;SDS011;26317;44.894;20.286;2024-01-30T03:59:57;89.22;;;68.30;;
40611;SDS011;26317;44.894;20.286;2024-01-30T04:02:38;89.05;;;65.28;;
40611;SDS011;26317;44.894;20.286;2024-01-30T04:05:13;85.43;;;63.20;;
40611;SDS011;26317;44.894;20.286;2024-01-30T04:07:49;79.22;;;61.70;;
40611;SDS011;26317;44.894;20.286;2024-01-30T04:10:25;80.38;;;59.13;;
40611;SDS011;26317;44.894;20.286;2024-01-30T04:13:03;87.97;;;65.05;;
40611;SDS011;26317;44.894;20.286;2024-01-30T04:15:43;78.32;;;59.83;;
40611;SDS011;26317;44.894;20.286;2024-01-30T04:18:16;75.43;;;56.40;;
40611;SDS011;26317;44.894;20.286;2024-01-30T04:20:57;74.60;;;54.13;;
40611;SDS011;26317;44.894;20.286;2024-01-30T04:23:39;68.07;;;52.72;;
40611;SDS011;26317;44.894;20.286;2024-01-30T04:26:15;72.22;;;53.65;;
40611;SDS011;26317;44.894;20.286;2024-01-30T04:29:00;70.80;;;55.40;;
40611;SDS011;26317;44.894;20.286;2024-01-30T04:31:41;73.40;;;54.88;;
40611;SDS011;26317;44.894;20.286;2024-01-30T04:34:19;71.03;;;55.03;;
40611;SDS011;26317;44.894;20.286;2024-01-30T04:37:04;68.05;;;52.83;;
40611;SDS011;26317;44.894;20.286;2024-01-30T04:39:45;71.45;;;54.42;;
40611;SDS011;26317;44.894;20.286;2024-01-30T04:42:20;69.60;;;53.03;;
40611;SDS011;26317;44.894;20.286;2024-01-30T04:45:00;71.72;;;55.50;;
40611;SDS011;26317;44.894;20.286;2024-01-30T04:47:49;65.35;;;52.42;;
40611;SDS011;26317;44.894;20.286;2024-01-30T04:50:26;66.50;;;53.63;;
40611;SDS011;26317;44.894;20.286;2024-01-30T04:53:01;69.28;;;52.30;;
40611;SDS011;26317;44.894;20.286;2024-01-30T04:55:44;72.55;;;54.58;;
40611;SDS011;26317;44.894;20.286;2024-01-30T04:58:21;75.38;;;57.22;;
40611;SDS011;26317;44.894;20.286;2024-01-30T05:00:57;67.63;;;52.20;;
40611;SDS011;26317;44.894;20.286;2024-01-30T05:03:41;69.50;;;54.53;;
40611;SDS011;26317;44.894;20.286;2024-01-30T05:06:25;65.90;;;52.35;;
40611;SDS011;26317;44.894;20.286;2024-01-30T05:09:08;71.82;;;55.55;;
40611;SDS011;26317;44.894;20.286;2024-01-30T05:11:52;74.82;;;56.45;;
40611;SDS011;26317;44.894;20.286;2024-01-30T05:14:43;76.63;;;57.78;;
40611;SDS011;26317;44.894;20.286;2024-01-30T05:17:18;68.60;;;54.72;;
40611;SDS011;26317;44.894;20.286;2024-01-30T05:20:00;73.18;;;55.25;;
40611;SDS011;26317;44.894;20.286;2024-01-30T05:22:38;70.18;;;54.67;;
40611;SDS011;26317;44.894;20.286;2024-01-30T05:25:20;74.57;;;57.22;;
40611;SDS011;26317;44.894;20.286;2024-01-30T05:27:57;71.90;;;55.70;;
40611;SDS011;26317;44.894;20.286;2024-01-30T05:30:29;68.28;;;53.60;;
40611;SDS011;26317;44.894;20.286;2024-01-30T05:33:10;72.13;;;56.75;;
40611;SDS011;26317;44.894;20.286;2024-01-30T05:35:49;72.72;;;55.83;;
40611;SDS011;26317;44.894;20.286;2024-01-30T05:38:24;72.65;;;55.55;;
40611;SDS011;26317;44.894;20.286;2024-01-30T05:41:03;67.00;;;55.10;;
40611;SDS011;26317;44.894;20.286;2024-01-30T05:43:45;71.25;;;53.42;;
40611;SDS011;26317;44.894;20.286;2024-01-30T05:46:26;75.05;;;55.40;;
40611;SDS011;26317;44.894;20.286;2024-01-30T05:49:04;68.82;;;53.45;;
40611;SDS011;26317;44.894;20.286;2024-01-30T05:51:40;71.13;;;52.88;;
40611;SDS011;26317;44.894;20.286;2024-01-30T05:54:16;70.78;;;52.28;;
40611;SDS011;26317;44.894;20.286;2024-01-30T05:56:50;70.25;;;55.53;;
40611;SDS011;26317;44.894;20.286;2024-01-30T05:59:24;75.57;;;56.85;;
40611;SDS011;26317;44.894;20.286;2024-01-30T06:01:59;65.85;;;52.65;;
40611;SDS011;26317;44.894;20.286;2024-01-30T06:04:39;90.88;;;64.90;;
40611;SDS011;26317;44.894;20.286;2024-01-30T06:07:21;77.88;;;61.60;;
40611;SDS011;26317;44.894;20.286;2024-01-30T06:10:13;77.75;;;60.10;;
40611;SDS011;26317;44.894;20.286;2024-01-30T06:12:51;74.32;;;57.55;;
40611;SDS011;26317;44.894;20.286;2024-01-30T06:15:25;75.53;;;57.08;;
40611;SDS011;26317;44.894;20.286;2024-01-30T06:18:04;69.57;;;56.22;;
40611;SDS011;26317;44.894;20.286;2024-01-30T06:20:38;76.85;;;58.40;;
40611;SDS011;26317;44.894;20.286;2024-01-30T06:23:29;77.15;;;59.10;;
40611;SDS011;26317;44.894;20.286;2024-01-30T06:26:04;73.60;;;57.28;;
40611;SDS011;26317;44.894;20.286;2024-01-30T06:28:40;76.63;;;60.58;;
40611;SDS011;26317;44.894;20.286;2024-01-30T06:31:22;80.28;;;58.35;;
40611;SDS011;26317;44.894;20.286;2024-01-30T06:34:05;78.85;;;59.83;;
40611;SDS011;26317;44.894;20.286;2024-01-30T06:36:38;77.53;;;61.40;;
40611;SDS011;26317;44.894;20.286;2024-01-30T06:39:17;77.65;;;59.42;;
40611;SDS011;26317;44.894;20.286;2024-01-30T06:41:51;82.97;;;63.15;;
40611;SDS011;26317;44.894;20.286;2024-01-30T06:44:25;80.72;;;63.47;;
40611;SDS011;26317;44.894;20.286;2024-01-30T06:47:02;77.47;;;62.25;;
40611;SDS011;26317;44.894;20.286;2024-01-30T06:49:36;86.18;;;65.95;;
40611;SDS011;26317;44.894;20.286;2024-01-30T06:52:24;80.47;;;61.83;;
40611;SDS011;26317;44.894;20.286;2024-01-30T06:55:10;85.15;;;62.13;;
40611;SDS011;26317;44.894;20.286;2024-01-30T06:58:00;80.20;;;61.78;;
40611;SDS011;26317;44.894;20.286;2024-01-30T07:00:33;76.47;;;60.17;;
40611;SDS011;26317;44.894;20.286;2024-01-30T07:03:29;76.00;;;58.13;;
40611;SDS011;26317;44.894;20.286;2024-01-30T07:06:09;70.30;;;56.43;;
40611;SDS011;26317;44.894;20.286;2024-01-30T07:08:45;78.28;;;59.03;;
40611;SDS011;26317;44.894;20.286;2024-01-30T07:11:24;74.93;;;57.75;;
40611;SDS011;26317;44.894;20.286;2024-01-30T07:14:19;71.45;;;56.90;;
40611;SDS011;26317;44.894;20.286;2024-01-30T07:16:59;70.20;;;57.50;;
40611;SDS011;26317;44.894;20.286;2024-01-30T07:19:42;66.88;;;53.72;;
40611;SDS011;26317;44.894;20.286;2024-01-30T07:22:19;65.60;;;52.83;;
40611;SDS011;26317;44.894;20.286;2024-01-30T07:25:01;72.00;;;53.35;;
40611;SDS011;26317;44.894;20.286;2024-01-30T07:27:43;70.43;;;53.42;;
40611;SDS011;26317;44.894;20.286;2024-01-30T07:30:26;64.35;;;50.40;;
40611;SDS011;26317;44.894;20.286;2024-01-30T07:33:04;66.97;;;49.78;;
40611;SDS011;26317;44.894;20.286;2024-01-30T07:35:44;66.93;;;51.85;;
40611;SDS011;26317;44.894;20.286;2024-01-30T07:38:25;70.68;;;51.75;;
40611;SDS011;26317;44.894;20.286;2024-01-30T07:41:07;66.90;;;51.88;;
40611;SDS011;26317;44.894;20.286;2024-01-30T07:43:44;66.75;;;49.83;;
40611;SDS011;26317;44.894;20.286;2024-01-30T07:46:43;66.57;;;52.17;;
40611;SDS011;26317;44.894;20.286;2024-01-30T07:49:18;65.20;;;52.30;;
40611;SDS011;26317;44.894;20.286;2024-01-30T07:51:54;65.90;;;49.50;;
40611;SDS011;26317;44.894;20.286;2024-01-30T07:54:42;65.60;;;49.35;;
40611;SDS011;26317;44.894;20.286;2024-01-30T07:57:32;66.32;;;50.05;;
40611;SDS011;26317;44.894;20.286;2024-01-30T08:03:11;66.25;;;52.50;;
40611;SDS011;26317;44.894;20.286;2024-01-30T08:06:06;67.10;;;52.28;;
40611;SDS011;26317;44.894;20.286;2024-01-30T08:08:54;72.40;;;53.00;;
40611;SDS011;26317;44.894;20.286;2024-01-30T08:11:59;68.50;;;51.58;;
40611;SDS011;26317;44.894;20.286;2024-01-30T08:14:33;69.80;;;53.85;;
40611;SDS011;26317;44.894;20.286;2024-01-30T08:17:13;71.38;;;53.95;;
40611;SDS011;26317;44.894;20.286;2024-01-30T08:19:54;74.18;;;56.13;;
40611;SDS011;26317;44.894;20.286;2024-01-30T08:22:34;67.85;;;54.85;;
40611;SDS011;26317;44.894;20.286;2024-01-30T08:25:09;74.05;;;56.78;;
40611;SDS011;26317;44.894;20.286;2024-01-30T08:28:06;70.95;;;54.53;;
40611;SDS011;26317;44.894;20.286;2024-01-30T08:30:49;68.80;;;53.88;;
40611;SDS011;26317;44.894;20.286;2024-01-30T08:33:26;65.55;;;51.42;;
40611;SDS011;26317;44.894;20.286;2024-01-30T08:36:00;64.95;;;50.60;;
40611;SDS011;26317;44.894;20.286;2024-01-30T08:38:35;62.95;;;48.15;;
40611;SDS011;26317;44.894;20.286;2024-01-30T08:41:17;66.25;;;50.00;;
40611;SDS011;26317;44.894;20.286;2024-01-30T08:44:02;64.78;;;49.25;;
40611;SDS011;26317;44.894;20.286;2024-01-30T08:46:51;61.65;;;45.38;;
40611;SDS011;26317;44.894;20.286;2024-01-30T08:49:41;60.67;;;44.50;;
40611;SDS011;26317;44.894;20.286;2024-01-30T08:53:14;28.73;;;21.83;;
40611;SDS011;26317;44.894;20.286;2024-01-30T08:55:49;26.50;;;18.02;;
40611;SDS011;26317;44.894;20.286;2024-01-30T08:58:41;26.90;;;16.48;;
40611;SDS011;26317;44.894;20.286;2024-01-30T09:04:31;18.75;;;13.98;;
40611;SDS011;26317;44.894;20.286;2024-01-30T09:07:17;18.83;;;14.02;;
40611;SDS011;26317;44.894;20.286;2024-01-30T09:09:53;19.27;;;13.30;;
40611;SDS011;26317;44.894;20.286;2024-01-30T09:12:31;18.90;;;14.18;;
40611;SDS011;26317;44.894;20.286;2024-01-30T09:15:12;16.83;;;12.88;;
40611;SDS011;26317;44.894;20.286;2024-01-30T09:17:56;17.60;;;12.75;;
40611;SDS011;26317;44.894;20.286;2024-01-30T09:20:36;17.40;;;13.52;;
40611;SDS011;26317;44.894;20.286;2024-01-30T09:23:17;15.70;;;13.68;;
40611;SDS011;26317;44.894;20.286;2024-01-30T09:25:51;17.20;;;13.77;;
40611;SDS011;26317;44.894;20.286;2024-01-30T09:28:32;17.75;;;13.63;;
40611;SDS011;26317;44.894;20.286;2024-01-30T09:31:13;17.80;;;13.63;;
40611;SDS011;26317;44.894;20.286;2024-01-30T09:33:51;15.55;;;11.95;;
40611;SDS011;26317;44.894;20.286;2024-01-30T09:36:45;16.42;;;13.70;;
40611;SDS011;26317;44.894;20.286;2024-01-30T09:39:21;18.27;;;14.52;;
40611;SDS011;26317;44.894;20.286;2024-01-30T09:41:57;16.52;;;12.93;;
40611;SDS011;26317;44.894;20.286;2024-01-30T09:44:40;20.60;;;13.52;;
40611;SDS011;26317;44.894;20.286;2024-01-30T09:47:17;15.90;;;13.02;;
40611;SDS011;26317;44.894;20.286;2024-01-30T09:49:55;19.23;;;13.23;;
40611;SDS011;26317;44.894;20.286;2024-01-30T09:52:41;16.95;;;12.55;;
40611;SDS011;26317;44.894;20.286;2024-01-30T09:55:21;16.15;;;13.38;;
40611;SDS011;26317;44.894;20.286;2024-01-30T09:57:57;16.30;;;12.77;;
40611;SDS011;26317;44.894;20.286;2024-01-30T10:00:42;17.30;;;12.98;;
40611;SDS011;26317;44.894;20.286;2024-01-30T10:06:10;15.18;;;10.65;;
40611;SDS011;26317;44.894;20.286;2024-01-30T10:08:54;16.88;;;11.98;;
40611;SDS011;26317;44.894;20.286;2024-01-30T10:11:39;19.10;;;13.32;;
40611;SDS011;26317;44.894;20.286;2024-01-30T10:14:12;18.77;;;12.65;;
40611;SDS011;26317;44.894;20.286;2024-01-30T10:16:50;13.88;;;11.10;;
40611;SDS011;26317;44.894;20.286;2024-01-30T10:19:32;14.93;;;10.73;;
40611;SDS011;26317;44.894;20.286;2024-01-30T10:22:13;15.65;;;11.13;;
40611;SDS011;26317;44.894;20.286;2024-01-30T10:27:31;14.90;;;10.90;;
40611;SDS011;26317;44.894;20.286;2024-01-30T10:30:08;13.63;;;10.77;;
40611;SDS011;26317;44.894;20.286;2024-01-30T10:33:03;12.85;;;9.63;;
40611;SDS011;26317;44.894;20.286;2024-01-30T10:35:38;13.38;;;10.50;;
40611;SDS011;26317;44.894;20.286;2024-01-30T10:38:12;13.80;;;10.40;;
40611;SDS011;26317;44.894;20.286;2024-01-30T10:41:04;14.35;;;10.48;;
40611;SDS011;26317;44.894;20.286;2024-01-30T10:43:46;15.55;;;10.35;;
40611;SDS011;26317;44.894;20.286;2024-01-30T10:46:42;11.18;;;9.05;;
40611;SDS011;26317;44.894;20.286;2024-01-30T10:49:22;10.70;;;8.20;;
40611;SDS011;26317;44.894;20.286;2024-01-30T10:51:58;14.25;;;8.93;;
40611;SDS011;26317;44.894;20.286;2024-01-30T10:54:44;13.57;;;8.88;;
40611;SDS011;26317;44.894;20.286;2024-01-30T10:57:29;13.10;;;8.80;;
40611;SDS011;26317;44.894;20.286;2024-01-30T11:00:06;9.90;;;8.00;;
40611;SDS011;26317;44.894;20.286;2024-01-30T11:02:58;16.70;;;9.40;;
40611;SDS011;26317;44.894;20.286;2024-01-30T11:05:33;8.60;;;7.45;;
40611;SDS011;26317;44.894;20.286;2024-01-30T11:08:10;8.00;;;6.50;;
40611;SDS011;26317;44.894;20.286;2024-01-30T11:10:57;11.43;;;7.32;;
40611;SDS011;26317;44.894;20.286;2024-01-30T11:13:37;8.68;;;6.63;;
40611;SDS011;26317;44.894;20.286;2024-01-30T11:16:22;10.15;;;7.43;;
40611;SDS011;26317;44.894;20.286;2024-01-30T11:19:02;9.65;;;7.85;;
40611;SDS011;26317;44.894;20.286;2024-01-30T11:21:47;12.30;;;8.55;;
40611;SDS011;26317;44.894;20.286;2024-01-30T11:24:29;11.50;;;8.27;;
40611;SDS011;26317;44.894;20.286;2024-01-30T11:27:15;10.25;;;7.93;;
40611;SDS011;26317;44.894;20.286;2024-01-30T11:30:04;8.82;;;7.40;;
40611;SDS011;26317;44.894;20.286;2024-01-30T11:32:39;11.10;;;7.80;;
40611;SDS011;26317;44.894;20.286;2024-01-30T11:35:32;9.88;;;7.03;;
40611;SDS011;26317;44.894;20.286;2024-01-30T11:38:15;9.05;;;6.53;;
40611;SDS011;26317;44.894;20.286;2024-01-30T11:40:50;6.43;;;5.63;;
40611;SDS011;26317;44.894;20.286;2024-01-30T11:43:27;8.50;;;6.05;;
40611;SDS011;26317;44.894;20.286;2024-01-30T11:46:11;13.15;;;7.32;;
40611;SDS011;26317;44.894;20.286;2024-01-30T11:48:49;11.07;;;8.15;;
40611;SDS011;26317;44.894;20.286;2024-01-30T11:51:34;10.63;;;8.02;;
40611;SDS011;26317;44.894;20.286;2024-01-30T11:54:18;11.75;;;7.75;;
40611;SDS011;26317;44.894;20.286;2024-01-30T11:57:03;16.27;;;8.13;;
40611;SDS011;26317;44.894;20.286;2024-01-30T11:59:40;11.18;;;8.30;;
40611;SDS011;26317;44.894;20.286;2024-01-30T12:02:20;10.35;;;7.75;;
40611;SDS011;26317;44.894;20.286;2024-01-30T12:05:03;9.75;;;7.07;;
40611;SDS011;26317;44.894;20.286;2024-01-30T12:07:48;10.98;;;6.97;;
40611;SDS011;26317;44.894;20.286;2024-01-30T12:10:22;8.60;;;6.32;;
40611;SDS011;26317;44.894;20.286;2024-01-30T12:13:01;13.45;;;6.63;;
40611;SDS011;26317;44.894;20.286;2024-01-30T12:15:54;10.13;;;7.13;;
40611;SDS011;26317;44.894;20.286;2024-01-30T12:18:41;9.93;;;6.90;;
40611;SDS011;26317;44.894;20.286;2024-01-30T12:21:22;9.55;;;7.22;;
40611;SDS011;26317;44.894;20.286;2024-01-30T12:24:00;8.30;;;6.75;;
40611;SDS011;26317;44.894;20.286;2024-01-30T12:26:41;8.90;;;6.35;;
40611;SDS011;26317;44.894;20.286;2024-01-30T12:29:17;19.65;;;6.82;;
40611;SDS011;26317;44.894;20.286;2024-01-30T12:31:56;11.27;;;6.90;;
40611;SDS011;26317;44.894;20.286;2024-01-30T12:34:46;8.05;;;6.72;;
40611;SDS011;26317;44.894;20.286;2024-01-30T12:37:29;14.85;;;7.82;;
40611;SDS011;26317;44.894;20.286;2024-01-30T12:40:07;8.93;;;7.20;;
40611;SDS011;26317;44.894;20.286;2024-01-30T12:42:54;11.32;;;7.60;;
40611;SDS011;26317;44.894;20.286;2024-01-30T12:45:30;13.90;;;7.07;;
40611;SDS011;26317;44.894;20.286;2024-01-30T12:48:08;7.78;;;6.43;;
40611;SDS011;26317;44.894;20.286;2024-01-30T12:50:46;12.15;;;7.22;;
40611;SDS011;26317;44.894;20.286;2024-01-30T12:53:25;8.02;;;6.75;;
40611;SDS011;26317;44.894;20.286;2024-01-30T12:55:58;11.70;;;7.22;;
40611;SDS011;26317;44.894;20.286;2024-01-30T12:58:34;8.35;;;6.75;;
40611;SDS011;26317;44.894;20.286;2024-01-30T13:01:18;9.00;;;6.70;;
40611;SDS011;26317;44.894;20.286;2024-01-30T13:03:55;13.05;;;7.88;;
40611;SDS011;26317;44.894;20.286;2024-01-30T13:06:42;11.02;;;8.20;;
40611;SDS011;26317;44.894;20.286;2024-01-30T13:12:08;10.65;;;8.40;;
40611;SDS011;26317;44.894;20.286;2024-01-30T13:14:48;14.73;;;9.43;;
40611;SDS011;26317;44.894;20.286;2024-01-30T13:17:26;13.82;;;10.05;;
40611;SDS011;26317;44.894;20.286;2024-01-30T13:20:08;13.65;;;11.35;;
40611;SDS011;26317;44.894;20.286;2024-01-30T13:22:52;13.70;;;11.35;;
40611;SDS011;26317;44.894;20.286;2024-01-30T13:25:34;16.45;;;13.05;;
40611;SDS011;26317;44.894;20.286;2024-01-30T13:28:12;19.58;;;12.75;;
40611;SDS011;26317;44.894;20.286;2024-01-30T13:30:48;16.52;;;13.23;;
40611;SDS011;26317;44.894;20.286;2024-01-30T13:33:26;18.60;;;13.40;;
40611;SDS011;26317;44.894;20.286;2024-01-30T13:35:59;20.08;;;14.00;;
40611;SDS011;26317;44.894;20.286;2024-01-30T13:38:42;20.20;;;14.25;;
40611;SDS011;26317;44.894;20.286;2024-01-30T13:41:18;16.23;;;13.57;;
40611;SDS011;26317;44.894;20.286;2024-01-30T13:43:57;16.92;;;12.82;;
40611;SDS011;26317;44.894;20.286;2024-01-30T13:46:40;15.77;;;12.38;;
40611;SDS011;26317;44.894;20.286;2024-01-30T13:49:14;15.10;;;11.38;;
40611;SDS011;26317;44.894;20.286;2024-01-30T13:51:49;11.52;;;9.68;;
40611;SDS011;26317;44.894;20.286;2024-01-30T13:54:34;14.07;;;9.68;;
40611;SDS011;26317;44.894;20.286;2024-01-30T13:57:07;13.40;;;10.98;;
40611;SDS011;26317;44.894;20.286;2024-01-30T13:59:45;12.73;;;10.45;;
40611;SDS011;26317;44.894;20.286;2024-01-30T14:02:20;12.10;;;9.38;;
40611;SDS011;26317;44.894;20.286;2024-01-30T14:04:58;11.65;;;8.55;;
40611;SDS011;26317;44.894;20.286;2024-01-30T14:07:43;13.52;;;9.95;;
40611;SDS011;26317;44.894;20.286;2024-01-30T14:10:28;13.20;;;8.88;;
40611;SDS011;26317;44.894;20.286;2024-01-30T14:13:03;11.73;;;8.85;;
40611;SDS011;26317;44.894;20.286;2024-01-30T14:15:47;10.13;;;8.43;;
40611;SDS011;26317;44.894;20.286;2024-01-30T14:18:27;9.18;;;7.57;;
40611;SDS011;26317;44.894;20.286;2024-01-30T14:21:10;11.43;;;7.28;;
40611;SDS011;26317;44.894;20.286;2024-01-30T14:23:50;9.82;;;8.48;;
40611;SDS011;26317;44.894;20.286;2024-01-30T14:26:28;11.70;;;8.65;;
40611;SDS011;26317;44.894;20.286;2024-01-30T14:29:10;9.57;;;7.90;;
40611;SDS011;26317;44.894;20.286;2024-01-30T14:31:49;11.63;;;9.02;;
40611;SDS011;26317;44.894;20.286;2024-01-30T14:34:44;14.18;;;9.25;;
40611;SDS011;26317;44.894;20.286;2024-01-30T14:37:19;16.95;;;9.68;;
40611;SDS011;26317;44.894;20.286;2024-01-30T14:40:07;12.27;;;9.43;;
40611;SDS011;26317;44.894;20.286;2024-01-30T14:42:49;12.10;;;9.45;;
40611;SDS011;26317;44.894;20.286;2024-01-30T14:45:36;12.10;;;9.18;;
40611;SDS011;26317;44.894;20.286;2024-01-30T14:48:27;12.45;;;8.23;;
40611;SDS011;26317;44.894;20.286;2024-01-30T14:51:05;13.80;;;9.68;;
40611;SDS011;26317;44.894;20.286;2024-01-30T14:53:46;15.07;;;10.15;;
40611;SDS011;26317;44.894;20.286;2024-01-30T14:56:19;15.20;;;10.30;;
40611;SDS011;26317;44.894;20.286;2024-01-30T14:58:58;15.15;;;10.50;;
40611;SDS011;26317;44.894;20.286;2024-01-30T15:01:33;14.27;;;10.60;;
40611;SDS011;26317;44.894;20.286;2024-01-30T15:04:21;17.80;;;11.40;;
40611;SDS011;26317;44.894;20.286;2024-01-30T15:07:01;19.02;;;10.88;;
40611;SDS011;26317;44.894;20.286;2024-01-30T15:09:40;17.63;;;12.02;;
40611;SDS011;26317;44.894;20.286;2024-01-30T15:12:22;20.48;;;12.43;;
40611;SDS011;26317;44.894;20.286;2024-01-30T15:15:08;18.13;;;11.20;;
40611;SDS011;26317;44.894;20.286;2024-01-30T15:20:30;23.20;;;12.20;;
40611;SDS011;26317;44.894;20.286;2024-01-30T15:23:06;15.90;;;12.27;;
40611;SDS011;26317;44.894;20.286;2024-01-30T15:25:44;16.98;;;12.18;;
40611;SDS011;26317;44.894;20.286;2024-01-30T15:28:37;21.27;;;11.85;;
40611;SDS011;26317;44.894;20.286;2024-01-30T15:31:11;19.77;;;12.43;;
40611;SDS011;26317;44.894;20.286;2024-01-30T15:33:48;17.17;;;12.48;;
40611;SDS011;26317;44.894;20.286;2024-01-30T15:36:25;20.35;;;13.05;;
40611;SDS011;26317;44.894;20.286;2024-01-30T15:39:14;16.75;;;13.80;;
40611;SDS011;26317;44.894;20.286;2024-01-30T15:41:49;17.70;;;14.90;;
40611;SDS011;26317;44.894;20.286;2024-01-30T15:44:28;21.77;;;15.50;;
40611;SDS011;26317;44.894;20.286;2024-01-30T15:47:03;22.13;;;15.57;;